Time;durP1;ratioP1;P1;durP2;ratioP2;P2;SDS_P1;SDS_P2;PMS_P1;PMS_P2;Temp;Humidity;BMP_temperature;BMP_pressure;BME280_temperature;BME280_humidity;BME280_pressure;Samples;Min_cycle;Max_cycle;Signal;HPM_P1;HPM_P2
2023/01/22 00:02:25;;;;;;;33.00;16.53;;;;;;;-3.04;100.00;103279.34;5019124;28;20029;-83
2023/01/22 00:04:51;;;;;;;33.88;16.92;;;;;;;-3.03;100.00;103278.59;5014956;28;20034;-82
2023/01/22 00:07:16;;;;;;;32.72;16.13;;;;;;;-3.01;100.00;103274.53;4998348;28;20032;-82
2023/01/22 00:09:42;;;;;;;30.92;14.95;;;;;;;-2.99;100.00;103281.50;4999311;28;20038;-82
2023/01/22 00:12:08;;;;;;;33.78;16.52;;;;;;;-2.97;100.00;103279.97;4999260;28;20026;-82
2023/01/22 00:14:33;;;;;;;34.00;16.38;;;;;;;-3.00;100.00;103279.72;4999007;28;20026;-82
2023/01/22 00:16:59;;;;;;;33.63;16.90;;;;;;;-3.01;100.00;103285.56;4999230;28;20521;-82
2023/01/22 00:19:24;;;;;;;32.17;16.92;;;;;;;-3.03;100.00;103286.22;4998838;28;20537;-83
2023/01/22 00:21:49;;;;;;;36.05;18.92;;;;;;;-2.96;100.00;103286.84;4998430;28;20034;-82
2023/01/22 00:24:15;;;;;;;34.80;17.88;;;;;;;-3.06;100.00;103289.41;4999070;28;20026;-82
2023/01/22 00:26:40;;;;;;;32.83;17.13;;;;;;;-3.06;100.00;103283.41;4999265;28;20026;-81
2023/01/22 00:29:05;;;;;;;34.35;17.48;;;;;;;-3.10;100.00;103288.25;5001517;28;20029;-82
2023/01/22 00:31:31;;;;;;;35.30;18.27;;;;;;;-3.11;100.00;103281.41;5018635;28;20029;-82
2023/01/22 00:33:56;;;;;;;34.67;17.75;;;;;;;-3.14;100.00;103271.00;5005454;28;20038;-82
2023/01/22 00:36:22;;;;;;;32.20;16.50;;;;;;;-3.13;100.00;103269.34;4998200;28;20026;-81
2023/01/22 00:38:48;;;;;;;34.35;17.77;;;;;;;-3.13;100.00;103270.25;4999430;28;20498;-82
2023/01/22 00:41:14;;;;;;;31.10;15.82;;;;;;;-3.12;100.00;103266.03;4997012;28;20022;-81
2023/01/22 00:43:40;;;;;;;33.83;17.52;;;;;;;-3.11;100.00;103270.34;4995652;28;20030;-82
2023/01/22 00:46:07;;;;;;;33.63;17.02;;;;;;;-3.09;100.00;103258.66;4995951;28;20360;-81
2023/01/22 00:48:32;;;;;;;;;;;;;;;-3.11;100.00;103271.25;4995541;28;20035;-80
2023/01/22 00:50:58;;;;;;;34.50;17.67;;;;;;;-3.10;100.00;103262.84;4996154;28;19914;-81
2023/01/22 00:53:23;;;;;;;34.85;18.05;;;;;;;-3.14;100.00;103265.03;4995856;28;20101;-82
2023/01/22 00:55:50;;;;;;;35.47;18.25;;;;;;;-3.13;100.00;103271.88;4995254;28;20018;-81
2023/01/22 00:58:15;;;;;;;33.60;17.30;;;;;;;-3.12;100.00;103269.47;4995666;28;20394;-81
2023/01/22 01:00:40;;;;;;;30.63;15.85;;;;;;;-3.12;100.00;103256.78;4995540;28;20022;-81
2023/01/22 01:05:50;;;;;;;32.00;16.17;;;;;;;-3.13;100.00;103255.00;5014940;28;20124;-81
2023/01/22 01:08:15;;;;;;;32.42;16.50;;;;;;;-3.14;100.00;103250.69;4976066;28;20030;-82
2023/01/22 01:10:40;;;;;;;33.55;17.70;;;;;;;-3.13;100.00;103249.91;4975478;28;20043;-81
2023/01/22 01:13:05;;;;;;;31.15;15.15;;;;;;;-3.12;100.00;103253.34;4975854;28;20019;-81
2023/01/22 01:15:31;;;;;;;31.10;15.98;;;;;;;-3.13;100.00;103241.38;4975802;28;20042;-81
2023/01/22 01:17:56;;;;;;;29.40;15.25;;;;;;;-3.13;100.00;103238.84;4975040;28;20022;-82
2023/01/22 01:20:21;;;;;;;28.00;13.98;;;;;;;-3.12;100.00;103244.06;4975466;28;20027;-81
2023/01/22 01:22:47;;;;;;;30.17;15.52;;;;;;;-3.12;100.00;103245.72;4975827;28;20027;-82
2023/01/22 01:25:12;;;;;;;31.27;16.20;;;;;;;-3.13;100.00;103246.47;4974792;28;20117;-81
2023/01/22 01:27:37;;;;;;;29.05;14.40;;;;;;;-3.13;100.00;103243.94;4975692;28;20093;-81
2023/01/22 01:30:03;;;;;;;30.80;15.63;;;;;;;-3.14;100.00;103237.97;4975390;28;20042;-81
2023/01/22 01:32:28;;;;;;;29.50;15.05;;;;;;;-3.15;100.00;103242.91;5004881;28;20417;-81
2023/01/22 01:34:57;;;;;;;31.70;15.30;;;;;;;-3.16;100.00;103229.34;5014096;28;20117;-81
2023/01/22 01:37:22;;;;;;;31.60;16.63;;;;;;;-3.16;100.00;103228.47;5014687;28;20034;-81
2023/01/22 01:39:51;;;;;;;33.55;16.60;;;;;;;-3.16;100.00;103231.00;5014054;28;20030;-81
2023/01/22 01:42:23;;;;;;;31.20;16.20;;;;;;;-3.14;100.00;103232.91;5013322;28;20516;-81
2023/01/22 01:45:25;;;;;;;28.88;15.38;;;;;;;-3.12;100.00;103225.38;4994227;28;20060;-81
2023/01/22 01:48:02;;;;;;;30.95;16.33;;;;;;;-3.13;100.00;103221.06;4994974;28;20023;-82
2023/01/22 01:50:28;;;;;;;28.23;14.75;;;;;;;-3.08;100.00;103208.72;4994982;28;20030;-81
2023/01/22 01:52:56;;;;;;;31.13;15.85;;;;;;;-3.13;100.00;103201.66;4993133;28;20022;-82
2023/01/22 01:55:27;;;;;;;30.17;15.55;;;;;;;-3.12;100.00;103212.69;4994674;28;20022;-82
2023/01/22 01:57:57;;;;;;;28.95;14.73;;;;;;;-3.13;100.00;103204.19;4994914;28;20053;-81
2023/01/22 02:00:27;;;;;;;28.25;14.35;;;;;;;-3.11;100.00;103197.59;5008288;28;20029;-81
2023/01/22 02:02:52;;;;;;;28.15;14.68;;;;;;;-3.09;100.00;103200.22;5014403;28;20018;-81
2023/01/22 02:05:20;;;;;;;26.90;13.15;;;;;;;-3.10;100.00;103201.88;5014011;28;20022;-81
2023/01/22 02:07:46;;;;;;;26.55;13.18;;;;;;;-3.11;100.00;103195.03;5013383;28;20026;-82
2023/01/22 02:10:11;;;;;;;25.20;12.80;;;;;;;-3.11;100.00;103192.50;5013651;28;20022;-81
2023/01/22 02:12:36;;;;;;;28.95;14.40;;;;;;;-3.08;100.00;103198.56;5014272;28;20029;-82
2023/01/22 02:15:03;;;;;;;27.80;13.75;;;;;;;-3.10;100.00;103195.91;5013390;28;20046;-81
2023/01/22 02:17:28;;;;;;;25.52;12.43;;;;;;;-3.10;100.00;103189.16;5013181;28;20073;-81
2023/01/22 02:19:54;;;;;;;25.77;12.90;;;;;;;-3.10;100.00;103173.94;5014060;28;20107;-82
2023/01/22 02:22:26;;;;;;;28.63;14.68;;;;;;;-3.13;100.00;103181.34;5012727;28;20022;-81
2023/01/22 02:24:52;;;;;;;28.48;14.45;;;;;;;-3.11;100.00;103178.91;5013881;28;20045;-81
2023/01/22 02:27:17;;;;;;;31.55;15.38;;;;;;;-3.12;100.00;103180.56;5006671;28;20113;-81
2023/01/22 02:29:42;;;;;;;26.23;13.85;;;;;;;-3.09;100.00;103187.53;4993920;28;20077;-81
2023/01/22 02:32:08;;;;;;;27.10;13.05;;;;;;;-3.06;100.00;103189.41;4993481;28;20026;-81
2023/01/22 02:34:36;;;;;;;25.00;12.23;;;;;;;-3.05;100.00;103192.09;4993405;28;20022;-80
2023/01/22 02:37:01;;;;;;;24.90;12.40;;;;;;;-3.04;100.00;103188.75;4993951;28;20026;-81
2023/01/22 02:39:27;;;;;;;27.02;12.90;;;;;;;-3.01;100.00;103189.00;4993792;28;20031;-81
2023/01/22 02:41:52;;;;;;;25.92;13.15;;;;;;;-2.99;100.00;103190.03;4993152;28;20022;-81
2023/01/22 02:44:18;;;;;;;25.10;12.20;;;;;;;-2.93;100.00;103196.38;4993814;28;20034;-81
2023/01/22 02:46:43;;;;;;;24.92;12.32;;;;;;;-2.87;100.00;103199.38;4993970;28;20022;-81
2023/01/22 02:49:08;;;;;;;24.02;12.07;;;;;;;-2.84;100.00;103190.31;4992635;28;20121;-80
2023/01/22 02:51:34;;;;;;;26.40;13.02;;;;;;;-2.83;100.00;103186.16;4993851;28;20038;-81
2023/01/22 02:53:59;;;;;;;28.90;15.00;;;;;;;-2.78;100.00;103189.03;4993566;28;20037;-80
2023/01/22 02:56:24;;;;;;;26.23;13.32;;;;;;;-2.72;100.00;103186.97;4994710;28;20109;-81
2023/01/22 02:58:49;;;;;;;24.20;12.50;;;;;;;-2.68;100.00;103187.31;4993621;28;20042;-81
2023/01/22 03:01:21;;;;;;;26.40;13.23;;;;;;;-2.64;100.00;103198.59;4993160;28;20026;-81
2023/01/22 03:03:49;;;;;;;24.27;12.20;;;;;;;-2.60;100.00;103189.56;4992627;28;20050;-81
2023/01/22 03:06:20;;;;;;;27.10;14.20;;;;;;;-2.59;100.00;103183.72;4993213;28;20027;-81
2023/01/22 03:08:47;;;;;;;27.02;13.98;;;;;;;-2.58;100.00;103183.81;4993556;28;20038;-81
2023/01/22 03:11:12;;;;;;;27.15;14.30;;;;;;;-2.56;100.00;103189.03;4992770;28;20026;-81
2023/01/22 03:21:49;;;;;;;27.25;14.25;;;;;;;-2.48;100.00;103182.88;4994045;28;20185;-81
2023/01/22 03:24:15;;;;;;;27.65;14.60;;;;;;;-2.52;100.00;103184.28;5009843;28;20113;-81
2023/01/22 03:26:40;;;;;;;28.25;15.23;;;;;;;-2.50;100.00;103186.97;5012840;28;20034;-81
2023/01/22 03:29:05;;;;;;;28.08;14.23;;;;;;;-2.50;100.00;103181.88;5012823;28;20036;-81
2023/01/22 03:31:31;;;;;;;26.20;13.88;;;;;;;-2.47;100.00;103177.00;5012357;28;20018;-81
2023/01/22 03:33:56;;;;;;;26.08;13.52;;;;;;;-2.47;100.00;103181.22;5012990;28;20459;-81
2023/01/22 03:36:21;;;;;;;25.13;12.63;;;;;;;-2.45;100.00;103179.69;5012924;28;20537;-81
2023/01/22 03:38:47;;;;;;;24.50;12.45;;;;;;;-2.48;100.00;103165.09;5011208;28;20018;-81
2023/01/22 03:41:14;;;;;;;24.50;12.98;;;;;;;-2.45;100.00;103162.75;4992857;28;20414;-81
2023/01/22 03:43:39;;;;;;;26.52;14.15;;;;;;;-2.46;100.00;103163.50;4992739;28;20027;-81
2023/01/22 03:46:13;;;;;;;25.58;13.60;;;;;;;-2.40;100.00;103161.47;4991674;28;20042;-80
2023/01/22 03:48:39;;;;;;;25.20;12.45;;;;;;;-2.44;100.00;103150.94;4992913;28;20491;-81
2023/01/22 03:51:07;;;;;;;25.67;12.70;;;;;;;-2.46;100.00;103153.34;5000642;28;20058;-82
2023/01/22 03:53:33;;;;;;;26.88;13.20;;;;;;;-2.50;100.00;103148.81;5011667;28;20119;-81
2023/01/22 03:56:02;;;;;;;25.13;12.95;;;;;;;-2.52;100.00;103153.75;5012590;28;20117;-81
2023/01/22 03:58:29;;;;;;;24.05;12.15;;;;;;;-2.52;100.00;103152.91;5011836;28;20033;-81
2023/01/22 04:00:56;;;;;;;;;;;;;;;-2.53;100.00;103159.63;5013285;28;20034;-81
2023/01/22 04:03:23;;;;;;;23.08;11.50;;;;;;;-2.54;100.00;103154.44;5012514;28;19920;-81
2023/01/22 04:05:49;;;;;;;25.83;13.75;;;;;;;-2.58;100.00;103157.50;5012017;28;20458;-81
2023/01/22 04:08:14;;;;;;;23.50;11.38;;;;;;;-2.58;100.00;103157.50;5011871;28;20057;-81
2023/01/22 04:10:39;;;;;;;24.83;12.13;;;;;;;-2.62;100.00;103158.94;5012617;28;20470;-81
2023/01/22 04:13:04;;;;;;;22.58;10.85;;;;;;;-2.60;100.00;103156.53;5011779;28;20113;-80
2023/01/22 04:15:30;;;;;;;24.58;11.65;;;;;;;-2.60;100.00;103154.84;5012489;28;20442;-81
2023/01/22 04:17:55;;;;;;;23.70;12.10;;;;;;;-2.60;100.00;103149.75;5015626;28;20026;-81
2023/01/22 04:20:20;;;;;;;25.92;12.80;;;;;;;-2.61;100.00;103152.19;5013132;28;20033;-81
2023/01/22 04:22:46;;;;;;;24.45;12.85;;;;;;;-2.60;100.00;103159.94;5015457;28;20026;-81
2023/01/22 04:25:11;;;;;;;23.58;12.15;;;;;;;-2.55;100.00;103162.81;5015522;28;20457;-81
2023/01/22 04:27:36;;;;;;;26.10;13.35;;;;;;;-2.53;100.00;103151.13;5015491;28;20099;-81
2023/01/22 04:30:05;;;;;;;27.38;14.25;;;;;;;-2.50;100.00;103142.06;5016278;28;20068;-81
2023/01/22 04:32:31;;;;;;;25.10;12.85;;;;;;;-2.47;100.00;103146.47;5015830;28;20461;-81
2023/01/22 04:34:56;;;;;;;25.35;13.70;;;;;;;-2.43;100.00;103157.81;5015106;28;20057;-81
2023/01/22 04:37:21;;;;;;;27.25;15.07;;;;;;;-2.43;100.00;103150.16;5015497;28;20040;-81
2023/01/22 04:39:47;;;;;;;26.55;14.23;;;;;;;-2.38;100.00;103152.28;5015834;28;20029;-81
2023/01/22 04:42:12;;;;;;;27.83;14.40;;;;;;;-2.34;100.00;103151.72;5014883;28;20033;-82
2023/01/22 04:44:37;;;;;;;27.10;14.70;;;;;;;-2.32;100.00;103156.94;5015444;28;20129;-81
2023/01/22 04:47:02;;;;;;;26.27;13.77;;;;;;;-2.30;100.00;103147.75;5007435;28;20065;-81
2023/01/22 04:49:28;;;;;;;26.17;13.30;;;;;;;-2.27;100.00;103142.91;4994884;28;20509;-81
2023/01/22 04:51:53;;;;;;;26.38;12.75;;;;;;;-2.31;100.00;103143.47;4996139;28;20034;-81
2023/01/22 04:54:18;;;;;;;25.65;13.93;;;;;;;-2.29;100.00;103146.97;4995555;28;20031;-82
2023/01/22 04:56:44;;;;;;;27.30;14.52;;;;;;;-2.31;100.00;103146.00;4995060;28;20110;-81
2023/01/22 04:59:09;;;;;;;25.92;13.40;;;;;;;-2.29;100.00;103143.56;4995852;28;20109;-81
2023/01/22 05:01:35;;;;;;;25.27;13.60;;;;;;;-2.29;100.00;103149.53;4995805;28;20088;-81
2023/01/22 05:04:01;;;;;;;26.13;12.70;;;;;;;-2.26;100.00;103142.13;4995283;28;20027;-81
2023/01/22 05:06:26;;;;;;;25.00;13.55;;;;;;;-2.26;100.00;103152.31;4995917;28;20471;-81
2023/01/22 05:08:51;;;;;;;26.25;13.23;;;;;;;-2.22;100.00;103150.88;5014253;28;20490;-81
2023/01/22 05:11:17;;;;;;;26.00;12.70;;;;;;;-2.22;100.00;103143.25;5013161;28;20022;-81
2023/01/22 05:13:42;;;;;;;25.73;13.88;;;;;;;-2.22;100.00;103150.88;5015207;28;20061;-82
2023/01/22 05:16:07;;;;;;;27.67;13.70;;;;;;;-2.21;100.00;103143.38;5013179;28;20061;-81
2023/01/22 05:18:33;;;;;;;27.98;14.07;;;;;;;-2.25;100.00;103132.84;5014484;28;20120;-82
2023/01/22 05:20:58;;;;;;;26.75;13.98;;;;;;;-2.23;100.00;103136.38;5015118;28;20029;-82
2023/01/22 05:23:23;;;;;;;27.63;14.18;;;;;;;-2.21;100.00;103147.56;5013523;28;20148;-82
2023/01/22 05:25:49;;;;;;;25.52;12.68;;;;;;;-2.19;100.00;103149.44;4997241;28;20034;-82
2023/01/22 05:28:14;;;;;;;26.52;13.63;;;;;;;-2.16;100.00;103148.81;4994247;28;20034;-82
2023/01/22 05:30:40;;;;;;;25.27;13.43;;;;;;;-2.19;100.00;103153.66;4994454;28;20349;-82
2023/01/22 05:33:05;;;;;;;26.67;14.55;;;;;;;-2.18;100.00;103161.38;4994745;28;20118;-81
2023/01/22 05:35:30;;;;;;;25.50;14.10;;;;;;;-2.20;100.00;103160.41;5003649;28;20026;-81
2023/01/22 05:37:55;;;;;;;25.85;13.52;;;;;;;-2.16;100.00;103164.06;5013276;28;20030;-82
2023/01/22 05:40:21;;;;;;;26.17;13.63;;;;;;;-2.15;100.00;103162.38;5013921;28;20022;-82
2023/01/22 05:42:46;;;;;;;25.95;13.50;;;;;;;-2.14;100.00;103161.63;5014221;28;20026;-83
2023/01/22 05:45:11;;;;;;;26.05;13.88;;;;;;;-2.15;100.00;103158.22;5013422;28;20022;-82
2023/01/22 05:47:37;;;;;;;26.15;12.95;;;;;;;-2.14;100.00;103166.72;5014528;28;20446;-82
2023/01/22 05:50:02;;;;;;;25.60;14.02;;;;;;;-2.14;100.00;103171.81;5014525;28;20498;-82
2023/01/22 05:52:30;;;;;;;26.92;14.55;;;;;;;-2.14;100.00;103170.16;5013394;28;20026;-83
2023/01/22 05:54:58;;;;;;;28.27;14.93;;;;;;;-2.14;100.00;103174.34;5014024;28;20022;-82
2023/01/22 05:57:24;;;;;;;27.55;14.45;;;;;;;-2.12;100.00;103175.34;5014309;28;20038;-82
2023/01/22 05:59:49;;;;;;;27.83;14.00;;;;;;;-2.13;100.00;103174.44;5013666;28;20382;-82
2023/01/22 06:02:14;;;;;;;26.08;14.00;;;;;;;-2.09;100.00;103173.91;5014169;28;20026;-82
2023/01/22 06:04:39;;;;;;;26.98;14.07;;;;;;;-2.11;100.00;103180.53;5014212;28;20026;-82
2023/01/22 06:07:05;;;;;;;25.02;12.82;;;;;;;-2.08;100.00;103182.41;5013171;28;20018;-81
2023/01/22 06:09:30;;;;;;;24.00;12.52;;;;;;;-2.07;100.00;103179.09;5014234;28;20425;-82
2023/01/22 06:11:55;;;;;;;24.05;12.27;;;;;;;-2.05;100.00;103175.03;5000362;28;20026;-82
2023/01/22 06:14:21;;;;;;;28.58;15.55;;;;;;;-2.11;100.00;103170.38;4992975;28;20023;-82
2023/01/22 06:16:46;;;;;;;26.15;14.20;;;;;;;-2.10;100.00;103169.59;4993953;28;20042;-82
2023/01/22 06:19:11;;;;;;;26.10;14.40;;;;;;;-2.07;100.00;103161.28;4993189;28;20030;-82
2023/01/22 06:21:37;;;;;;;27.73;14.13;;;;;;;-2.06;100.00;103175.78;4994431;28;20022;-82
2023/01/22 06:24:02;;;;;;;26.38;13.90;;;;;;;-2.06;100.00;103174.16;4993970;28;20023;-82
2023/01/22 06:26:29;;;;;;;26.25;14.05;;;;;;;-2.06;100.00;103186.88;4993265;28;20030;-82
2023/01/22 06:28:54;;;;;;;26.75;14.05;;;;;;;-2.06;100.00;103184.31;4994084;28;20034;-82
2023/01/22 06:31:19;;;;;;;26.23;13.70;;;;;;;-2.04;100.00;103185.34;4993940;28;20031;-82
2023/01/22 06:33:45;;;;;;;26.08;13.02;;;;;;;-2.04;100.00;103184.44;4993606;28;20342;-82
2023/01/22 06:36:10;;;;;;;24.67;12.57;;;;;;;-2.02;100.00;103182.91;4994586;28;20792;-82
2023/01/22 06:38:36;;;;;;;24.08;12.55;;;;;;;-1.98;100.00;103178.91;4993034;28;20076;-82
2023/01/22 06:41:01;;;;;;;25.95;13.35;;;;;;;-1.95;100.00;103174.06;4993009;28;20383;-82
2023/01/22 06:43:27;;;;;;;26.88;13.95;;;;;;;-1.99;100.00;103178.03;4993862;28;20046;-82
2023/01/22 06:45:53;;;;;;;24.63;13.18;;;;;;;-1.98;100.00;103182.38;4993720;28;20034;-83
2023/01/22 06:48:18;;;;;;;24.27;13.00;;;;;;;-2.00;100.00;103172.81;4992768;28;20022;-81
2023/01/22 06:50:44;;;;;;;23.20;11.55;;;;;;;-1.95;100.00;103181.69;4993582;28;20064;-82
2023/01/22 06:53:10;;;;;;;24.20;12.63;;;;;;;-1.93;100.00;103190.34;4993274;28;20066;-82
2023/01/22 06:55:36;;;;;;;22.63;11.35;;;;;;;-1.93;100.00;103187.78;4993132;28;20053;-83
2023/01/22 06:58:01;;;;;;;23.73;12.10;;;;;;;-1.91;100.00;103189.66;4993607;28;20054;-82
2023/01/22 07:00:30;;;;;;;26.42;13.95;;;;;;;-1.97;100.00;103186.66;4993587;28;20045;-82
2023/01/22 07:02:55;;;;;;;23.75;12.55;;;;;;;-1.95;100.00;103184.25;4993141;28;20026;-82
2023/01/22 07:05:21;;;;;;;22.60;11.95;;;;;;;-1.92;100.00;103185.34;5003261;28;20180;-83
2023/01/22 07:07:46;;;;;;;23.30;11.68;;;;;;;-1.84;100.00;103183.38;5012176;28;20164;-82
2023/01/22 07:10:12;;;;;;;23.55;12.40;;;;;;;-1.77;100.00;103193.22;5011433;28;20022;-82
2023/01/22 07:12:37;;;;;;;24.13;12.65;;;;;;;-1.74;100.00;103187.44;5013311;28;20026;-82
2023/01/22 07:15:05;;;;;;;24.42;12.90;;;;;;;-1.87;100.00;103191.69;5012683;28;20065;-83
2023/01/22 07:17:31;;;;;;;24.85;13.40;;;;;;;-1.87;100.00;103195.88;5012697;28;20034;-82
2023/01/22 07:19:56;;;;;;;25.27;13.35;;;;;;;-1.79;100.00;103192.22;5012786;28;20041;-82
2023/01/22 07:22:21;;;;;;;24.73;12.80;;;;;;;-1.84;100.00;103190.09;5012474;28;20048;-82
2023/01/22 07:24:47;;;;;;;23.30;11.98;;;;;;;-1.81;100.00;103188.69;5005219;28;20018;-81
2023/01/22 07:27:15;;;;;;;25.08;13.70;;;;;;;-1.84;100.00;103192.66;4991944;28;20081;-82
2023/01/22 07:29:40;;;;;;;24.73;12.98;;;;;;;-1.79;100.00;103197.31;4992368;28;20050;-83
2023/01/22 07:32:06;;;;;;;25.50;13.23;;;;;;;-1.79;100.00;103194.75;4993511;28;20053;-82
2023/01/22 07:34:31;;;;;;;25.63;13.65;;;;;;;-1.84;100.00;103195.19;4993250;28;20467;-82
2023/01/22 07:36:56;;;;;;;25.60;13.48;;;;;;;-1.81;100.00;103195.44;4992363;28;20029;-83
2023/01/22 07:39:22;;;;;;;24.88;12.95;;;;;;;-1.81;100.00;103197.97;4992793;28;20057;-81
2023/01/22 07:41:47;;;;;;;23.77;13.02;;;;;;;-1.80;100.00;103194.66;4993343;28;20415;-82
2023/01/22 07:44:12;;;;;;;25.33;12.93;;;;;;;-1.82;100.00;103193.66;4992236;28;20113;-82
2023/01/22 07:46:38;;;;;;;24.98;13.07;;;;;;;-1.80;100.00;103198.06;4991605;28;20499;-83
2023/01/22 07:49:04;;;;;;;24.90;12.90;;;;;;;-1.78;100.00;103201.63;4992107;28;20030;-83
2023/01/22 07:51:30;;;;;;;22.73;11.40;;;;;;;-1.76;100.00;103199.22;4995223;28;20030;-84
2023/01/22 07:53:56;;;;;;;23.08;12.07;;;;;;;-1.76;100.00;103202.63;4997191;28;20037;-84
2023/01/22 07:56:21;;;;;;;23.20;11.13;;;;;;;-1.74;100.00;103197.63;4996640;28;20022;-84
2023/01/22 07:58:46;;;;;;;23.10;11.57;;;;;;;-1.74;100.00;103203.63;4996367;28;20026;-84
2023/01/22 08:01:11;;;;;;;24.52;11.85;;;;;;;-1.74;100.00;103206.19;5003112;28;20034;-82
2023/01/22 08:03:38;;;;;;;23.33;12.10;;;;;;;-1.73;100.00;103213.03;5016136;28;20029;-83
2023/01/22 08:06:08;;;;;;;24.63;13.07;;;;;;;-1.74;100.00;103213.81;5015328;28;20026;-83
2023/01/22 08:08:33;;;;;;;24.27;12.40;;;;;;;-1.71;100.00;103211.50;5016074;28;20061;-84
2023/01/22 08:10:59;;;;;;;24.13;12.93;;;;;;;-1.67;100.00;103211.72;5016509;28;20064;-84
2023/01/22 08:13:24;;;;;;;23.15;12.40;;;;;;;-1.65;100.00;103205.97;5015212;28;20026;-83
2023/01/22 08:15:50;;;;;;;21.70;11.18;;;;;;;-1.60;100.00;103208.84;5016121;28;20041;-85
2023/01/22 08:18:15;;;;;;;23.80;12.70;;;;;;;-1.59;100.00;103208.94;5015959;28;20030;-84
2023/01/22 08:20:40;;;;;;;23.42;11.77;;;;;;;-1.56;100.00;103205.75;5015411;28;20032;-84
2023/01/22 08:23:06;;;;;;;22.02;11.00;;;;;;;-1.51;100.00;103209.53;5015616;28;20121;-84
2023/01/22 08:25:31;;;;;;;20.52;9.90;;;;;;;-1.47;100.00;103220.81;5015795;28;20026;-84
2023/01/22 08:28:00;;;;;;;24.48;12.60;;;;;;;-1.52;100.00;103223.03;5015147;28;20033;-84
2023/01/22 08:30:26;;;;;;;23.10;11.35;;;;;;;-1.47;100.00;103224.25;4996397;28;20487;-83
2023/01/22 08:32:51;;;;;;;23.00;11.20;;;;;;;-1.42;100.00;103227.13;4995144;28;20038;-83
2023/01/22 08:35:17;;;;;;;21.40;11.02;;;;;;;-1.42;100.00;103228.00;4995710;28;20034;-83
2023/01/22 08:37:42;;;;;;;21.00;10.30;;;;;;;-1.43;100.00;103228.78;4995985;28;20038;-84
2023/01/22 08:40:09;;;;;;;21.60;10.45;;;;;;;-1.43;100.00;103228.78;4995074;28;20022;-83
2023/01/22 08:42:34;;;;;;;18.92;9.13;;;;;;;-1.39;100.00;103227.34;4996080;28;20030;-83
2023/01/22 08:45:00;;;;;;;20.23;9.55;;;;;;;-1.39;100.00;103224.78;4995802;28;20034;-84
2023/01/22 08:47:25;;;;;;;21.00;10.32;;;;;;;-1.40;100.00;103221.38;4995132;28;20475;-83
2023/01/22 08:49:51;;;;;;;20.48;9.88;;;;;;;-1.37;100.00;103224.91;4995750;28;20026;-84
2023/01/22 08:52:16;;;;;;;18.98;8.80;;;;;;;-1.35;100.00;103220.81;4995557;28;20081;-84
2023/01/22 08:54:41;;;;;;;21.02;10.02;;;;;;;-1.34;100.00;103222.56;4995627;28;20023;-84
2023/01/22 08:57:07;;;;;;;19.88;9.82;;;;;;;-1.32;100.00;103227.03;4997298;28;20042;-83
2023/01/22 08:59:32;;;;;;;19.30;8.57;;;;;;;-1.31;100.00;103231.34;4995269;28;20463;-84
2023/01/22 09:01:59;;;;;;;18.50;8.70;;;;;;;-1.28;100.00;103231.53;4993077;28;20432;-83
2023/01/22 09:04:25;;;;;;;21.42;9.63;;;;;;;-1.23;100.00;103226.78;4995514;28;20026;-84
2023/01/22 09:06:50;;;;;;;20.88;9.75;;;;;;;-1.29;100.00;103227.22;4994748;28;20122;-83
2023/01/22 09:09:16;;;;;;;20.58;9.05;;;;;;;-1.26;100.00;103221.47;4996019;28;20130;-83
2023/01/22 09:11:41;;;;;;;20.80;10.25;;;;;;;-1.07;100.00;103226.25;5014593;28;20359;-83
2023/01/22 09:14:08;;;;;;;21.05;10.07;;;;;;;-1.30;100.00;103230.56;5015004;28;20030;-83
2023/01/22 09:16:34;;;;;;;;;;;;;;;-1.29;100.00;103226.34;5013801;28;20394;-83
2023/01/22 09:18:59;;;;;;;20.20;9.13;;;;;;;-1.29;100.00;103232.31;5015086;28;19944;-84
2023/01/22 09:21:25;;;;;;;20.13;9.40;;;;;;;-1.31;100.00;103228.81;5000568;28;20058;-83
2023/01/22 09:23:50;;;;;;;21.80;11.02;;;;;;;-1.27;100.00;103229.91;4994649;28;20033;-83
2023/01/22 09:26:27;;;;;;;21.95;10.20;;;;;;;-1.30;100.00;103237.31;4995163;28;20026;-82
2023/01/22 09:29:04;;;;;;;;;;;;;;;-1.27;100.00;103235.00;4995750;28;20026;-82
2023/01/22 09:31:45;;;;;;;19.35;8.88;;;;;;;-1.24;100.00;103235.22;4995345;28;19925;-82
2023/01/22 09:34:26;;;;;;;19.75;9.18;;;;;;;-1.22;100.00;103236.19;4995188;28;20033;-83
2023/01/22 09:36:51;;;;;;;20.08;9.07;;;;;;;-1.21;100.00;103235.41;4995734;28;20046;-82
2023/01/22 09:39:17;;;;;;;19.65;9.20;;;;;;;-1.20;100.00;103239.75;4994650;28;20597;-83
2023/01/22 09:41:48;;;;;;;19.58;9.70;;;;;;;-1.22;100.00;103241.28;4994973;28;20598;-83
2023/01/22 09:44:22;;;;;;;19.90;10.00;;;;;;;-1.17;100.00;103237.44;4994116;28;20077;-83
2023/01/22 09:46:53;;;;;;;20.58;9.95;;;;;;;-1.16;100.00;103249.41;4994778;28;20093;-83
2023/01/22 09:49:22;;;;;;;19.70;9.20;;;;;;;-1.13;100.00;103248.72;4995632;28;20034;-83
2023/01/22 09:51:53;;;;;;;20.85;10.52;;;;;;;-1.17;100.00;103254.34;4994248;28;20030;-83
2023/01/22 09:54:19;;;;;;;21.15;10.43;;;;;;;-1.17;100.00;103252.72;4994615;28;20022;-82
2023/01/22 09:56:49;;;;;;;19.42;9.73;;;;;;;-1.19;100.00;103250.84;4994723;28;20080;-82
2023/01/22 09:59:23;;;;;;;19.98;9.27;;;;;;;-1.17;100.00;103245.06;4996051;28;20034;-82
2023/01/22 10:01:55;;;;;;;20.92;9.68;;;;;;;-1.15;100.00;103243.53;4995784;28;20026;-82
2023/01/22 10:04:42;;;;;;;19.92;9.63;;;;;;;-1.17;100.00;103249.25;5002796;28;20029;-81
2023/01/22 10:07:15;;;;;;;21.88;10.60;;;;;;;-1.13;100.00;103243.63;4992258;28;20030;-82
2023/01/22 10:09:53;;;;;;;20.23;10.73;;;;;;;-1.12;100.00;103245.41;4992680;28;20049;-82
2023/01/22 10:12:18;;;;;;;21.00;10.55;;;;;;;-1.09;100.00;103243.94;4994005;28;20030;-83
2023/01/22 10:14:44;;;;;;;19.17;9.23;;;;;;;-0.97;100.00;103249.06;4993621;28;20092;-83
2023/01/22 10:17:22;;;;;;;20.88;9.55;;;;;;;-0.98;100.00;103254.94;4994209;28;20423;-82
2023/01/22 10:20:07;;;;;;;21.45;10.00;;;;;;;-1.01;100.00;103258.88;4994078;28;20022;-83
2023/01/22 10:22:38;;;;;;;21.17;10.20;;;;;;;-0.99;100.00;103254.78;4994219;28;20104;-84
2023/01/22 10:25:04;;;;;;;20.02;9.93;;;;;;;-0.98;100.00;103264.22;4993786;28;20033;-82
2023/01/22 10:27:39;;;;;;;21.02;10.32;;;;;;;-1.00;100.00;103255.56;4994989;28;20038;-82
2023/01/22 10:30:21;;;;;;;20.77;10.32;;;;;;;-0.98;100.00;103247.28;4998598;28;20019;-83
2023/01/22 10:33:15;;;;;;;18.80;9.40;;;;;;;-0.97;100.00;103246.50;5004499;28;20054;-82
2023/01/22 10:35:43;;;;;;;19.17;8.98;;;;;;;-0.94;100.00;103238.19;5005072;28;20100;-83
2023/01/22 10:38:20;;;;;;;19.58;9.82;;;;;;;-0.95;100.00;103237.28;4996673;28;20098;-83
2023/01/22 10:40:52;;;;;;;19.10;9.40;;;;;;;-0.91;100.00;103243.50;5004574;28;20038;-82
2023/01/22 10:43:17;;;;;;;19.05;8.80;;;;;;;-0.88;100.00;103242.81;4993507;28;20513;-83
2023/01/22 10:45:54;;;;;;;18.20;8.40;;;;;;;-0.84;100.00;103247.34;5002989;28;20022;-82
2023/01/22 10:48:20;;;;;;;;;;;;;;;-0.87;100.00;103252.25;4998122;28;20053;-82
2023/01/22 10:50:56;;;;;;;18.70;9.27;;;;;;;-0.88;100.00;103246.25;5007620;28;19918;-82
2023/01/22 10:53:32;;;;;;;19.08;9.20;;;;;;;-0.86;100.00;103247.25;4999530;28;20040;-82
2023/01/22 10:55:59;;;;;;;17.42;8.35;;;;;;;-0.84;100.00;103258.44;5001297;28;20511;-83
2023/01/22 10:58:32;;;;;;;17.50;8.50;;;;;;;-0.83;100.00;103254.22;4993942;28;20510;-82
2023/01/22 11:01:00;;;;;;;16.95;7.95;;;;;;;-0.81;100.00;103257.75;4995958;28;20024;-82
2023/01/22 11:03:32;;;;;;;18.85;8.98;;;;;;;-0.81;100.00;103252.66;5005369;28;20057;-82
2023/01/22 11:06:03;;;;;;;18.05;8.75;;;;;;;-0.82;100.00;103251.78;4993955;28;20483;-83
2023/01/22 11:08:49;;;;;;;18.13;8.77;;;;;;;-0.83;100.00;103244.00;4990685;28;20065;-82
2023/01/22 11:11:18;;;;;;;18.40;9.43;;;;;;;-0.84;100.00;103229.50;4991546;28;20122;-83
2023/01/22 11:13:56;;;;;;;20.27;9.63;;;;;;;-0.82;100.00;103236.50;5002386;28;20022;-83
2023/01/22 11:16:23;;;;;;;20.20;9.98;;;;;;;-0.81;100.00;103234.81;4996910;28;20471;-83